createdAt,value
2023-12-18T00:01:47.940Z,13.07
2023-12-18T00:04:33.800Z,14.57
2023-12-18T00:07:18.893Z,14.10
2023-12-18T00:10:04.721Z,13.65
2023-12-18T00:12:50.173Z,13.63
2023-12-18T00:15:35.613Z,14.75
2023-12-18T00:18:21.061Z,13.00
2023-12-18T00:21:06.536Z,13.95
2023-12-18T00:23:51.715Z,13.32
2023-12-18T00:26:37.259Z,12.57
2023-12-18T00:29:22.823Z,13.82
2023-12-18T00:32:08.860Z,14.80
2023-12-18T00:34:54.486Z,14.07
2023-12-18T00:37:40.644Z,14.50
2023-12-18T00:40:26.386Z,13.63
2023-12-18T00:43:13.055Z,14.15
2023-12-18T00:45:58.267Z,12.18
2023-12-18T00:48:44.042Z,12.85
2023-12-18T00:51:29.932Z,12.50
2023-12-18T00:54:15.298Z,12.82
2023-12-18T00:57:00.548Z,13.20
2023-12-18T00:59:46.049Z,13.45
2023-12-18T01:02:31.540Z,12.88
2023-12-18T01:05:17.031Z,13.15
2023-12-18T01:08:02.452Z,12.80
2023-12-18T01:10:48.392Z,12.68
2023-12-18T01:13:33.765Z,13.48
2023-12-18T01:16:19.099Z,13.35
2023-12-18T01:19:05.344Z,14.48
2023-12-18T01:21:50.832Z,13.65
2023-12-18T01:24:36.477Z,15.05
2023-12-18T01:27:22.140Z,13.98
2023-12-18T01:30:10.132Z,14.63
2023-12-18T01:32:55.872Z,14.15
2023-12-18T01:35:41.378Z,14.02
2023-12-18T01:38:26.973Z,13.63
2023-12-18T01:41:12.682Z,14.48
2023-12-18T01:43:57.995Z,15.27
2023-12-18T01:46:45.337Z,13.98
2023-12-18T01:49:31.303Z,14.75
2023-12-18T01:52:18.048Z,15.05
2023-12-18T01:55:04.648Z,15.02
2023-12-18T01:57:51.684Z,15.75
2023-12-18T02:00:37.347Z,13.82
2023-12-18T02:03:24.490Z,14.55
2023-12-18T02:06:11.028Z,14.35
2023-12-18T02:08:58.094Z,14.18
2023-12-18T02:11:46.858Z,13.75
2023-12-18T02:14:32.675Z,15.20
2023-12-18T02:17:18.293Z,14.98
2023-12-18T02:20:08.083Z,14.80
2023-12-18T02:22:54.172Z,14.75
2023-12-18T02:25:39.506Z,13.88
2023-12-18T02:28:25.853Z,15.05
2023-12-18T02:31:15.870Z,14.93
2023-12-18T02:34:01.541Z,13.55
2023-12-18T02:36:47.194Z,14.00
2023-12-18T02:39:32.782Z,13.55
2023-12-18T02:42:18.357Z,14.35
2023-12-18T02:45:04.615Z,14.25
2023-12-18T02:47:50.347Z,14.23
2023-12-18T02:50:35.778Z,13.93
2023-12-18T02:53:21.182Z,14.77
2023-12-18T02:56:07.470Z,15.48
2023-12-18T02:58:53.204Z,15.05
2023-12-18T03:01:38.806Z,14.80
2023-12-18T03:04:24.589Z,14.20
2023-12-18T03:07:10.401Z,15.52
2023-12-18T03:09:56.017Z,15.38
2023-12-18T03:12:41.596Z,14.82
2023-12-18T03:15:27.553Z,15.25
2023-12-18T03:18:13.301Z,14.10
2023-12-18T03:20:58.736Z,14.15
2023-12-18T03:23:44.023Z,14.75
2023-12-18T03:26:29.516Z,16.65
2023-12-18T03:29:15.389Z,14.63
2023-12-18T03:32:01.984Z,14.40
2023-12-18T03:34:47.362Z,14.88
2023-12-18T03:37:32.892Z,13.18
2023-12-18T03:40:18.322Z,13.82
2023-12-18T03:43:03.683Z,15.65
2023-12-18T03:45:49.443Z,15.10
2023-12-18T03:48:35.012Z,15.40
2023-12-18T03:51:20.914Z,14.35
2023-12-18T03:54:06.108Z,14.32
2023-12-18T03:56:51.832Z,14.40
2023-12-18T03:59:37.164Z,15.15
2023-12-18T04:02:23.680Z,14.32
2023-12-18T04:05:09.267Z,15.07
2023-12-18T04:07:55.018Z,14.68
2023-12-18T04:10:40.357Z,14.82
2023-12-18T04:13:25.872Z,13.48
2023-12-18T04:16:11.604Z,14.52
2023-12-18T04:18:58.616Z,14.90
2023-12-18T04:21:44.464Z,14.05
2023-12-18T04:24:29.902Z,14.15
2023-12-18T04:27:15.879Z,14.13
2023-12-18T04:30:01.027Z,13.90
2023-12-18T04:32:46.688Z,14.43
2023-12-18T04:35:32.019Z,13.93
2023-12-18T04:38:17.852Z,15.02
2023-12-18T04:41:03.392Z,14.07
2023-12-18T04:43:49.806Z,14.88
2023-12-18T04:46:36.575Z,13.82
2023-12-18T04:49:22.061Z,15.63
2023-12-18T04:52:07.289Z,15.18
2023-12-18T04:54:54.810Z,15.38
2023-12-18T04:57:40.177Z,15.00
2023-12-18T05:00:25.503Z,15.98
2023-12-18T05:03:11.152Z,16.08
2023-12-18T05:05:56.580Z,16.15
2023-12-18T05:08:42.148Z,17.20
2023-12-18T05:11:27.884Z,17.45
2023-12-18T05:14:13.142Z,17.00
2023-12-18T05:16:58.961Z,16.38
2023-12-18T05:19:44.278Z,17.77
2023-12-18T05:22:29.838Z,18.38
2023-12-18T05:25:15.117Z,16.70
2023-12-18T05:28:00.609Z,17.00
2023-12-18T05:30:46.412Z,18.08
2023-12-18T05:33:31.717Z,17.08
2023-12-18T05:36:17.458Z,17.08
2023-12-18T05:39:02.902Z,17.02
2023-12-18T05:41:48.414Z,16.83
2023-12-18T05:44:33.864Z,17.33
2023-12-18T05:47:19.321Z,16.33
2023-12-18T05:50:05.242Z,17.80
2023-12-18T05:52:50.746Z,17.42
2023-12-18T05:55:36.019Z,17.65
2023-12-18T05:58:21.691Z,17.27
2023-12-18T06:01:07.808Z,16.23
2023-12-18T06:03:53.751Z,17.73
2023-12-18T06:06:39.830Z,15.90
2023-12-18T06:09:25.256Z,16.10
2023-12-18T06:12:12.032Z,16.90
2023-12-18T06:14:57.923Z,16.10
2023-12-18T06:17:43.261Z,17.55
2023-12-18T06:20:28.879Z,17.20
2023-12-18T06:23:14.342Z,17.17
2023-12-18T06:26:02.093Z,16.52
2023-12-18T06:28:48.240Z,16.50
2023-12-18T06:31:34.860Z,15.52
2023-12-18T06:34:20.822Z,16.35
2023-12-18T06:37:06.473Z,17.20
2023-12-18T06:39:51.993Z,16.55
2023-12-18T06:42:37.789Z,16.65
2023-12-18T06:45:23.469Z,17.02
2023-12-18T06:48:09.201Z,16.60
2023-12-18T06:50:54.680Z,17.27
2023-12-18T06:53:40.428Z,16.40
2023-12-18T06:56:26.061Z,17.02
2023-12-18T06:59:14.595Z,15.85
2023-12-18T07:02:00.203Z,17.08
2023-12-18T07:04:45.930Z,17.35
2023-12-18T07:07:31.104Z,16.77
2023-12-18T07:10:16.714Z,16.80
2023-12-18T07:13:02.319Z,15.85
2023-12-18T07:15:47.818Z,15.82
2023-12-18T07:18:33.374Z,16.67
2023-12-18T07:21:18.601Z,15.60
2023-12-18T07:24:04.426Z,16.30
2023-12-18T07:26:50.197Z,16.00
2023-12-18T07:29:35.891Z,15.55
2023-12-18T07:32:22.727Z,16.27
2023-12-18T07:35:08.507Z,16.55
2023-12-18T07:37:53.776Z,17.05
2023-12-18T07:40:39.313Z,16.92
2023-12-18T07:43:24.786Z,16.33
2023-12-18T07:46:20.103Z,15.77
2023-12-18T07:49:05.616Z,15.75
2023-12-18T07:51:50.941Z,15.65
2023-12-18T07:54:36.461Z,15.57
2023-12-18T07:57:22.378Z,16.25
2023-12-18T08:00:09.863Z,17.38
2023-12-18T08:02:58.371Z,15.75
2023-12-18T08:05:44.259Z,15.73
2023-12-18T08:08:29.964Z,14.82
2023-12-18T08:11:15.508Z,15.40
2023-12-18T08:14:00.945Z,15.52
2023-12-18T08:16:46.531Z,16.55
2023-12-18T08:19:32.292Z,16.15
2023-12-18T08:22:18.181Z,16.27
2023-12-18T08:25:04.124Z,15.38
2023-12-18T08:27:49.743Z,15.10
2023-12-18T08:30:35.317Z,15.27
2023-12-18T08:33:21.719Z,15.77
2023-12-18T08:36:07.880Z,15.98
2023-12-18T08:38:53.333Z,15.27
2023-12-18T08:41:39.825Z,14.60
2023-12-18T08:44:25.544Z,14.70
2023-12-18T08:47:11.122Z,13.40
2023-12-18T08:49:56.542Z,14.73
2023-12-18T08:52:42.176Z,14.88
2023-12-18T08:55:27.574Z,15.85
2023-12-18T08:58:13.053Z,14.82
2023-12-18T09:00:59.112Z,14.75
2023-12-18T09:03:44.866Z,16.40
2023-12-18T09:06:30.370Z,14.60
2023-12-18T09:09:15.736Z,15.32
2023-12-18T09:12:00.988Z,16.55
2023-12-18T09:14:46.799Z,16.10
2023-12-18T09:17:31.983Z,15.52
2023-12-18T09:20:18.140Z,14.68
2023-12-18T09:23:09.756Z,16.85
2023-12-18T09:25:55.456Z,16.08
2023-12-18T09:28:41.085Z,15.55
2023-12-18T09:31:26.393Z,16.73
2023-12-18T09:34:12.098Z,15.50
2023-12-18T09:36:57.970Z,17.02
2023-12-18T09:39:43.977Z,16.88
2023-12-18T09:42:29.234Z,15.93
2023-12-18T09:45:16.866Z,17.02
2023-12-18T09:48:02.718Z,16.25
2023-12-18T09:50:48.199Z,16.10
2023-12-18T09:53:34.433Z,15.50
2023-12-18T09:56:24.281Z,16.20
2023-12-18T09:59:09.462Z,15.25
2023-12-18T10:01:55.534Z,16.40
2023-12-18T10:04:42.522Z,15.93
2023-12-18T10:07:27.950Z,15.77
2023-12-18T10:10:13.317Z,14.55
2023-12-18T10:12:58.735Z,15.43
2023-12-18T10:15:44.525Z,16.45
2023-12-18T10:18:30.164Z,14.40
2023-12-18T10:21:24.022Z,16.63
2023-12-18T10:24:10.657Z,15.75
2023-12-18T10:26:56.206Z,16.33
2023-12-18T10:29:41.963Z,17.20
2023-12-18T10:32:28.763Z,15.57
2023-12-18T10:35:14.298Z,15.60
2023-12-18T10:38:01.794Z,16.25
2023-12-18T10:40:47.739Z,16.52
2023-12-18T10:43:34.871Z,16.85
2023-12-18T10:46:23.247Z,17.98
2023-12-18T10:49:09.482Z,17.52
2023-12-18T10:51:56.432Z,17.38
2023-12-18T10:54:45.882Z,17.15
2023-12-18T10:57:33.313Z,18.92
2023-12-18T11:00:20.351Z,18.35
2023-12-18T11:03:06.643Z,18.70
2023-12-18T11:05:53.775Z,19.10
2023-12-18T11:08:39.102Z,18.58
2023-12-18T11:11:25.805Z,19.35
2023-12-18T11:14:14.271Z,18.73
2023-12-18T11:17:12.686Z,18.65
2023-12-18T11:20:22.932Z,18.35
2023-12-18T11:23:10.435Z,20.75
2023-12-18T11:25:57.189Z,18.83
2023-12-18T11:28:49.092Z,20.05
2023-12-18T11:31:34.482Z,19.05
2023-12-18T11:34:22.372Z,18.77
2023-12-18T11:37:09.750Z,18.33
2023-12-18T11:39:56.615Z,18.13
2023-12-18T11:42:48.475Z,17.45
2023-12-18T11:45:37.371Z,17.77
2023-12-18T11:48:27.266Z,17.58
2023-12-18T11:51:13.806Z,17.13
2023-12-18T11:54:00.354Z,17.60
2023-12-18T11:56:47.996Z,16.88
2023-12-18T11:59:34.676Z,17.13
2023-12-18T12:02:21.831Z,17.92
2023-12-18T12:05:07.636Z,17.60
2023-12-18T12:07:54.107Z,17.17
2023-12-18T12:10:41.012Z,17.00
2023-12-18T12:13:28.820Z,15.50
2023-12-18T12:16:20.617Z,18.20
2023-12-18T12:19:07.454Z,16.70
2023-12-18T12:21:53.064Z,16.42
2023-12-18T12:24:43.725Z,16.42
2023-12-18T12:27:30.764Z,16.60
2023-12-18T12:30:18.109Z,18.05
2023-12-18T12:33:04.677Z,16.40
2023-12-18T12:35:50.359Z,16.50
2023-12-18T12:38:40.841Z,15.98
2023-12-18T12:41:26.247Z,16.05
2023-12-18T12:44:11.704Z,16.75
2023-12-18T12:46:57.265Z,15.70
2023-12-18T12:49:52.581Z,15.60
2023-12-18T12:52:38.936Z,13.48
2023-12-18T12:55:24.441Z,15.00
2023-12-18T12:58:11.442Z,14.88
2023-12-18T13:00:59.009Z,14.13
2023-12-18T13:03:44.406Z,16.20
2023-12-18T13:06:30.452Z,15.73
2023-12-18T13:09:16.075Z,14.57
2023-12-18T13:12:05.371Z,14.82
2023-12-18T13:14:51.380Z,14.93
2023-12-18T13:17:36.980Z,15.30
2023-12-18T13:20:27.875Z,14.95
2023-12-18T13:23:15.727Z,13.98
2023-12-18T13:26:01.339Z,14.65
2023-12-18T13:28:47.027Z,13.60
2023-12-18T13:31:34.567Z,14.82
2023-12-18T13:34:20.164Z,14.55
2023-12-18T13:37:07.712Z,15.05
2023-12-18T13:39:53.374Z,14.57
2023-12-18T13:42:38.746Z,15.23
2023-12-18T13:45:24.458Z,15.07
2023-12-18T13:48:10.359Z,15.52
2023-12-18T13:50:55.663Z,15.48
2023-12-18T13:53:41.331Z,16.15
2023-12-18T13:56:27.855Z,15.93
2023-12-18T13:59:13.261Z,15.45
2023-12-18T14:01:59.017Z,15.20
2023-12-18T14:04:45.987Z,15.95
2023-12-18T14:07:32.256Z,15.15
2023-12-18T14:10:18.088Z,15.95
2023-12-18T14:13:04.206Z,16.17
2023-12-18T14:15:49.775Z,15.23
2023-12-18T14:18:35.975Z,15.82
2023-12-18T14:21:22.884Z,16.55
2023-12-18T14:24:08.594Z,14.55
2023-12-18T14:26:54.030Z,15.55
2023-12-18T14:29:39.678Z,16.73
2023-12-18T14:32:25.465Z,16.10
2023-12-18T14:35:11.349Z,17.60
2023-12-18T14:37:57.265Z,15.30
2023-12-18T14:40:42.346Z,15.07
2023-12-18T14:43:29.598Z,16.35
2023-12-18T14:46:17.135Z,17.63
2023-12-18T14:49:03.335Z,16.17
2023-12-18T14:51:49.071Z,16.83
2023-12-18T14:54:34.814Z,15.60
2023-12-18T14:57:20.039Z,14.45
2023-12-18T15:00:06.336Z,14.52
2023-12-18T15:02:51.799Z,15.73
2023-12-18T15:05:37.346Z,14.63
2023-12-18T15:08:23.054Z,16.27
2023-12-18T15:11:08.586Z,16.30
2023-12-18T15:13:54.101Z,15.60
2023-12-18T15:16:39.885Z,17.35
2023-12-18T15:19:25.538Z,16.75
2023-12-18T15:22:11.682Z,18.02
2023-12-18T15:24:56.989Z,17.13
2023-12-18T15:27:44.194Z,17.23
2023-12-18T15:30:29.925Z,16.90
2023-12-18T15:33:17.959Z,17.13
2023-12-18T15:36:12.787Z,18.17
2023-12-18T15:39:01.720Z,17.13
2023-12-18T15:41:47.658Z,17.27
2023-12-18T15:44:34.953Z,16.42
2023-12-18T15:47:21.773Z,17.77
2023-12-18T15:50:08.012Z,17.30
2023-12-18T15:52:53.759Z,18.50
2023-12-18T15:55:39.341Z,16.20
2023-12-18T15:58:24.918Z,17.27
2023-12-18T16:01:13.065Z,18.45
2023-12-18T16:03:58.711Z,18.52
2023-12-18T16:06:44.508Z,18.17
2023-12-18T16:09:30.221Z,17.17
2023-12-18T16:12:15.702Z,17.75
2023-12-18T16:15:01.290Z,18.98
2023-12-18T16:17:46.471Z,17.42
2023-12-18T16:20:31.859Z,18.77
2023-12-18T16:23:20.415Z,19.38
2023-12-18T16:26:05.886Z,19.10
2023-12-18T16:28:53.506Z,19.15
2023-12-18T16:31:39.156Z,18.98
2023-12-18T16:34:27.755Z,18.33
2023-12-18T16:37:14.694Z,20.42
2023-12-18T16:40:00.647Z,21.02
2023-12-18T16:42:46.631Z,20.23
2023-12-18T16:45:32.774Z,20.15
2023-12-18T16:48:18.254Z,21.30
2023-12-18T16:51:04.267Z,20.38
2023-12-18T16:53:49.763Z,23.25
2023-12-18T16:56:35.971Z,21.30
2023-12-18T16:59:22.750Z,22.05
2023-12-18T17:02:08.296Z,23.08
2023-12-18T17:04:53.941Z,24.35
2023-12-18T17:07:39.809Z,24.48
2023-12-18T17:10:25.054Z,24.98
2023-12-18T17:13:13.609Z,24.20
2023-12-18T17:15:58.987Z,25.35
2023-12-18T17:18:44.320Z,25.88
2023-12-18T17:21:29.949Z,24.48
2023-12-18T17:24:16.173Z,24.30
2023-12-18T17:27:01.436Z,26.00
2023-12-18T17:29:47.389Z,25.35
2023-12-18T17:32:32.570Z,25.90
2023-12-18T17:35:18.214Z,25.45
2023-12-18T17:38:03.863Z,26.02
2023-12-18T17:40:50.371Z,25.83
2023-12-18T17:43:35.927Z,24.60
2023-12-18T17:46:21.830Z,24.90
2023-12-18T17:49:07.417Z,27.13
2023-12-18T17:51:53.453Z,25.23
2023-12-18T17:54:38.911Z,24.75
2023-12-18T17:57:24.460Z,25.55
2023-12-18T18:00:10.459Z,24.65
2023-12-18T18:02:55.863Z,25.73
2023-12-18T18:05:41.614Z,26.42
2023-12-18T18:08:28.124Z,26.40
2023-12-18T18:11:13.470Z,25.65
2023-12-18T18:14:00.753Z,26.65
2023-12-18T18:16:46.111Z,26.00
2023-12-18T18:19:31.829Z,25.13
2023-12-18T18:22:18.144Z,24.58
2023-12-18T18:25:03.968Z,25.50
2023-12-18T18:27:49.786Z,26.20
2023-12-18T18:30:35.312Z,25.30
2023-12-18T18:33:20.801Z,24.85
2023-12-18T18:36:06.620Z,24.85
2023-12-18T18:38:52.103Z,26.33
2023-12-18T18:41:37.494Z,27.25
2023-12-18T18:44:23.294Z,27.08
2023-12-18T18:47:08.529Z,26.25
2023-12-18T18:49:54.049Z,28.25
2023-12-18T18:52:39.805Z,27.60
2023-12-18T18:55:25.081Z,27.58
2023-12-18T18:58:11.457Z,28.05
2023-12-18T19:00:57.455Z,26.10
2023-12-18T19:03:43.333Z,27.88
2023-12-18T19:06:28.886Z,28.00
2023-12-18T19:09:14.484Z,27.52
2023-12-18T19:12:00.120Z,27.02
2023-12-18T19:14:45.556Z,25.58
2023-12-18T19:17:31.048Z,27.90
2023-12-18T19:20:16.679Z,27.10
2023-12-18T19:23:02.438Z,26.02
2023-12-18T19:25:47.882Z,28.20
2023-12-18T19:28:33.473Z,26.88
2023-12-18T19:31:19.057Z,27.83
2023-12-18T19:34:04.595Z,27.90
2023-12-18T19:36:49.939Z,28.08
2023-12-18T19:39:35.439Z,26.70
2023-12-18T19:42:21.350Z,29.42
2023-12-18T19:45:07.953Z,28.42
2023-12-18T19:47:53.393Z,28.42
2023-12-18T19:50:39.295Z,26.90
2023-12-18T19:53:24.775Z,28.10
2023-12-18T19:56:10.154Z,28.92
2023-12-18T19:58:55.445Z,27.92
2023-12-18T20:01:41.252Z,28.27
2023-12-18T20:04:26.727Z,27.73
2023-12-18T20:07:12.288Z,28.80
2023-12-18T20:09:58.425Z,30.88
2023-12-18T20:12:44.022Z,30.60
2023-12-18T20:15:29.378Z,28.88
2023-12-18T20:18:19.901Z,30.60
2023-12-18T20:21:05.390Z,28.55
2023-12-18T20:23:51.719Z,30.20
2023-12-18T20:26:36.990Z,29.90
2023-12-18T20:29:22.775Z,30.20
2023-12-18T20:32:08.466Z,30.25
2023-12-18T20:34:54.087Z,29.08
2023-12-18T20:37:39.526Z,30.55
2023-12-18T20:40:25.599Z,29.60
2023-12-18T20:43:11.045Z,31.13
2023-12-18T20:45:57.123Z,30.63
2023-12-18T20:48:42.793Z,30.80
2023-12-18T20:51:28.874Z,30.33
2023-12-18T20:54:14.151Z,30.00
2023-12-18T20:56:59.562Z,30.52
2023-12-18T20:59:44.927Z,30.70
2023-12-18T21:02:30.769Z,31.15
2023-12-18T21:05:16.032Z,30.45
2023-12-18T21:08:01.707Z,30.08
2023-12-18T21:10:47.258Z,31.95
2023-12-18T21:13:33.179Z,31.98
2023-12-18T21:16:18.895Z,30.80
2023-12-18T21:19:04.203Z,30.88
2023-12-18T21:21:51.945Z,31.20
2023-12-18T21:24:37.800Z,31.15
2023-12-18T21:27:23.246Z,30.90
2023-12-18T21:30:10.041Z,29.88
2023-12-18T21:32:55.829Z,30.15
2023-12-18T21:35:41.073Z,33.13
2023-12-18T21:38:27.080Z,30.77
2023-12-18T21:41:12.392Z,32.25
2023-12-18T21:43:58.156Z,31.42
2023-12-18T21:46:44.102Z,30.80
2023-12-18T21:49:29.409Z,30.55
2023-12-18T21:52:15.913Z,29.70
2023-12-18T21:55:01.525Z,31.92
2023-12-18T21:57:47.084Z,31.80
2023-12-18T22:00:33.815Z,30.40
2023-12-18T22:03:19.751Z,30.92
2023-12-18T22:06:05.782Z,32.13
2023-12-18T22:08:51.198Z,31.25
2023-12-18T22:11:36.554Z,32.72
2023-12-18T22:14:22.191Z,32.83
2023-12-18T22:17:07.821Z,32.45
2023-12-18T22:19:53.573Z,31.38
2023-12-18T22:22:39.127Z,33.65
2023-12-18T22:25:24.916Z,34.10
2023-12-18T22:28:10.471Z,35.38
2023-12-18T22:30:56.181Z,36.60
2023-12-18T22:33:41.531Z,34.75
2023-12-18T22:36:27.183Z,35.25
2023-12-18T22:39:13.105Z,35.45
2023-12-18T22:41:58.874Z,35.60
2023-12-18T22:44:44.294Z,35.03
2023-12-18T22:47:29.715Z,34.97
2023-12-18T22:50:15.495Z,34.25
2023-12-18T22:53:00.764Z,35.30
2023-12-18T22:55:46.300Z,34.08
2023-12-18T22:58:31.827Z,35.00
2023-12-18T23:01:17.524Z,34.42
2023-12-18T23:04:03.411Z,35.50
2023-12-18T23:06:50.494Z,32.78
2023-12-18T23:09:38.056Z,35.28
2023-12-18T23:12:23.392Z,35.58
2023-12-18T23:15:09.353Z,34.22
2023-12-18T23:17:55.104Z,36.88
2023-12-18T23:20:40.736Z,35.95
2023-12-18T23:23:26.175Z,35.95
2023-12-18T23:26:11.476Z,35.50
2023-12-18T23:28:57.557Z,36.55
2023-12-18T23:31:43.104Z,37.97
2023-12-18T23:34:28.596Z,36.22
2023-12-18T23:37:13.984Z,37.55
2023-12-18T23:39:59.699Z,37.33
2023-12-18T23:42:45.471Z,38.17
2023-12-18T23:45:31.464Z,40.85
2023-12-18T23:48:17.580Z,38.58
2023-12-18T23:51:03.030Z,43.38
2023-12-18T23:53:48.476Z,43.67
2023-12-18T23:56:33.841Z,44.05
2023-12-18T23:59:19.701Z,44.53
